Time;durP1;ratioP1;P1;durP2;ratioP2;P2;SDS_P1;SDS_P2;PMS_P1;PMS_P2;Temp;Humidity;BMP_temperature;BMP_pressure;BME280_temperature;BME280_humidity;BME280_pressure;Samples;Min_cycle;Max_cycle;Signal;HPM_P1;HPM_P2
2023/03/11 00:00:43;;;;;;;9.25;5.60;;;;;;;;;;4991454;28;20026;-68
2023/03/11 00:03:12;;;;;;;8.05;5.00;;;;;;;;;;4991883;28;20026;-68
2023/03/11 00:05:40;;;;;;;7.35;4.57;;;;;;;;;;4991638;28;20517;-68
2023/03/11 00:08:09;;;;;;;8.90;5.00;;;;;;;;;;4974149;28;20459;-68
2023/03/11 00:10:38;;;;;;;9.20;5.10;;;;;;;;;;4991999;28;20419;-68
2023/03/11 00:13:05;;;;;;;9.90;5.97;;;;;;;;;;4991695;28;20030;-68
2023/03/11 00:15:32;;;;;;;8.75;5.80;;;;;;;;;;4992034;28;20073;-68
2023/03/11 00:17:57;;;;;;;10.18;5.47;;;;;;;;;;4994524;28;20034;-68
2023/03/11 00:20:28;;;;;;;6.63;3.42;;;;;;;;;;4995308;28;20030;-68
2023/03/11 00:22:54;;;;;;;4.95;2.03;;;;;;;;;;4995328;28;20054;-68
2023/03/11 00:25:22;;;;;;;3.88;2.17;;;;;;;;;;4995486;28;20090;-68
2023/03/11 00:27:49;;;;;;;2.85;1.83;;;;;;;;;;4995070;28;20463;-68
2023/03/11 00:30:16;;;;;;;2.70;1.20;;;;;;;;;;4994893;28;20077;-68
2023/03/11 00:32:42;;;;;;;3.42;1.25;;;;;;;;;;4993715;28;20050;-67
2023/03/11 00:35:12;;;;;;;2.33;1.30;;;;;;;;;;4977651;28;20026;-68
2023/03/11 00:37:38;;;;;;;3.45;1.40;;;;;;;;;;5005952;28;20045;-68
2023/03/11 00:40:07;;;;;;;2.78;1.33;;;;;;;;;;5003219;28;20034;-68
2023/03/11 00:42:34;;;;;;;2.55;1.30;;;;;;;;;;4995495;28;20034;-68
2023/03/11 00:45:00;;;;;;;2.40;1.30;;;;;;;;;;4961438;28;20621;-68
2023/03/11 00:47:26;;;;;;;3.00;1.35;;;;;;;;;;4977039;28;20030;-68
2023/03/11 00:49:51;;;;;;;2.13;1.42;;;;;;;;;;4995083;28;20022;-68
2023/03/11 00:52:17;;;;;;;3.38;1.30;;;;;;;;;;4977082;28;20044;-68
2023/03/11 00:54:45;;;;;;;2.47;1.25;;;;;;;;;;4988760;28;20034;-68
2023/03/11 00:57:11;;;;;;;2.45;1.20;;;;;;;;;;4976989;28;20041;-68
2023/03/11 00:59:37;;;;;;;1.45;1.10;;;;;;;;;;4994572;28;20444;-68
2023/03/11 01:02:03;;;;;;;2.03;1.20;;;;;;;;;;4977202;28;20118;-68
2023/03/11 01:04:28;;;;;;;3.25;1.92;;;;;;;;;;4976871;28;20023;-68
2023/03/11 01:06:54;;;;;;;7.05;3.00;;;;;;;;;;4998287;28;20480;-68
2023/03/11 01:09:20;;;;;;;3.47;2.00;;;;;;;;;;4991973;28;20022;-68
2023/03/11 01:11:46;;;;;;;2.83;1.30;;;;;;;;;;4993259;28;20042;-68
2023/03/11 01:14:12;;;;;;;1.77;1.20;;;;;;;;;;4993918;28;20050;-68
2023/03/11 01:16:37;;;;;;;3.20;1.35;;;;;;;;;;4992680;28;20500;-68
2023/03/11 01:19:03;;;;;;;2.42;1.40;;;;;;;;;;4992415;28;20520;-68
2023/03/11 01:21:29;;;;;;;3.08;1.40;;;;;;;;;;4992492;28;20114;-68
2023/03/11 01:23:54;;;;;;;2.55;1.30;;;;;;;;;;4992775;28;20030;-68
2023/03/11 01:26:20;;;;;;;3.47;1.50;;;;;;;;;;4994167;28;20034;-68
2023/03/11 01:28:47;;;;;;;3.00;1.42;;;;;;;;;;4992762;28;20026;-68
2023/03/11 01:31:12;;;;;;;4.47;1.80;;;;;;;;;;4994249;28;20100;-67
2023/03/11 01:33:38;;;;;;;3.28;1.95;;;;;;;;;;4994282;28;20026;-68
2023/03/11 01:36:04;;;;;;;5.05;2.00;;;;;;;;;;4974666;28;20558;-67
2023/03/11 01:38:30;;;;;;;4.10;2.05;;;;;;;;;;4992404;28;20030;-68
2023/03/11 01:40:56;;;;;;;7.28;2.53;;;;;;;;;;4975496;28;20030;-68
2023/03/11 01:43:57;;;;;;;4.22;2.30;;;;;;;;;;4976401;28;20056;-68
2023/03/11 01:46:32;;;;;;;5.85;2.40;;;;;;;;;;4914473;29;20119;-68
2023/03/11 01:49:00;;;;;;;3.88;2.20;;;;;;;;;;4967488;28;20077;-68
2023/03/11 01:51:34;;;;;;;3.28;2.40;;;;;;;;;;4976228;28;20034;-68
2023/03/11 01:54:05;;;;;;;3.92;2.53;;;;;;;;;;4977393;28;20030;-68
2023/03/11 01:56:31;;;;;;;5.53;2.58;;;;;;;;;;4972426;28;20043;-68
2023/03/11 01:58:58;;;;;;;3.85;2.08;;;;;;;;;;4972711;28;20038;-68
2023/03/11 02:01:24;;;;;;;4.10;2.20;;;;;;;;;;4958584;28;20030;-68
2023/03/11 02:03:51;;;;;;;3.60;1.90;;;;;;;;;;4960284;28;20114;-68
2023/03/11 02:06:22;;;;;;;4.22;2.17;;;;;;;;;;4993167;28;20113;-68
2023/03/11 02:08:50;;;;;;;4.07;1.85;;;;;;;;;;4991944;28;20062;-68
2023/03/11 02:11:23;;;;;;;3.65;2.00;;;;;;;;;;4975982;28;20022;-68
2023/03/11 02:13:51;;;;;;;2.53;1.55;;;;;;;;;;4993539;28;20034;-68
2023/03/11 02:16:17;;;;;;;3.42;1.60;;;;;;;;;;4975754;28;20089;-68
2023/03/11 02:18:43;;;;;;;3.45;1.38;;;;;;;;;;4991493;28;20460;-68
2023/03/11 02:21:21;;;;;;;4.32;1.35;;;;;;;;;;4992849;28;20194;-68
2023/03/11 02:24:19;;;;;;;2.42;1.30;;;;;;;;;;4975665;28;20045;-68
2023/03/11 02:26:59;;;;;;;2.13;1.20;;;;;;;;;;4940111;28;20443;-68
2023/03/11 02:29:27;;;;;;;1.60;1.10;;;;;;;;;;4991412;28;20034;-68
2023/03/11 02:31:54;;;;;;;1.80;1.02;;;;;;;;;;4975734;28;20050;-68
2023/03/11 02:34:26;;;;;;;2.28;1.23;;;;;;;;;;4975720;28;20042;-68
2023/03/11 02:36:52;;;;;;;2.55;1.25;;;;;;;;;;4996826;28;20076;-67
2023/03/11 02:39:33;;;;;;;1.63;1.10;;;;;;;;;;4994722;28;20025;-68
2023/03/11 02:42:02;;;;;;;3.00;1.33;;;;;;;;;;4974768;28;20081;-67
2023/03/11 02:44:28;;;;;;;2.78;1.40;;;;;;;;;;4975420;28;20465;-68
2023/03/11 02:46:54;;;;;;;3.13;1.40;;;;;;;;;;4975316;28;20057;-68
2023/03/11 02:49:21;;;;;;;2.30;1.52;;;;;;;;;;4975215;28;20113;-68
2023/03/11 02:51:48;;;;;;;5.63;1.58;;;;;;;;;;4991424;28;20129;-68
2023/03/11 02:54:13;;;;;;;2.90;1.40;;;;;;;;;;4959436;28;20443;-68
2023/03/11 02:56:40;;;;;;;2.05;1.30;;;;;;;;;;4974993;28;20101;-68
2023/03/11 02:59:05;;;;;;;3.30;1.42;;;;;;;;;;4974823;28;20484;-68
2023/03/11 03:01:31;;;;;;;2.10;1.35;;;;;;;;;;4992554;28;20030;-68
2023/03/11 03:03:57;;;;;;;3.72;1.60;;;;;;;;;;4975142;28;20037;-68
2023/03/11 03:06:24;;;;;;;3.40;1.73;;;;;;;;;;4990741;28;20037;-68
2023/03/11 03:08:50;;;;;;;3.70;1.60;;;;;;;;;;4990678;28;20548;-67
2023/03/11 03:11:16;;;;;;;2.67;1.52;;;;;;;;;;4974847;28;20038;-67
2023/03/11 03:13:42;;;;;;;2.58;1.38;;;;;;;;;;4974195;28;20078;-67
2023/03/11 03:16:07;;;;;;;2.70;1.30;;;;;;;;;;4970025;28;20046;-67
2023/03/11 03:18:33;;;;;;;3.75;1.30;;;;;;;;;;4973914;28;20057;-67
2023/03/11 03:20:59;;;;;;;4.03;1.65;;;;;;;;;;4974264;28;20026;-67
2023/03/11 03:23:25;;;;;;;3.70;1.60;;;;;;;;;;4980597;28;20113;-68
2023/03/11 03:25:51;;;;;;;3.15;1.63;;;;;;;;;;4991943;28;20508;-67
2023/03/11 03:28:17;;;;;;;5.05;2.95;;;;;;;;;;4991467;28;20473;-68
2023/03/11 03:30:45;;;;;;;3.60;1.90;;;;;;;;;;4974515;28;20125;-68
2023/03/11 03:33:12;;;;;;;5.78;1.60;;;;;;;;;;4980178;28;20030;-68
2023/03/11 03:35:43;;;;;;;4.80;1.48;;;;;;;;;;4986177;28;20030;-68
2023/03/11 03:38:15;;;;;;;2.72;1.27;;;;;;;;;;4985377;28;20039;-67
2023/03/11 03:40:45;;;;;;;2.35;1.50;;;;;;;;;;4987267;28;20105;-68
2023/03/11 03:43:11;;;;;;;3.10;1.52;;;;;;;;;;4974777;28;20026;-68
2023/03/11 03:45:39;;;;;;;2.30;1.60;;;;;;;;;;4990741;28;20033;-68
2023/03/11 03:48:06;;;;;;;6.15;1.98;;;;;;;;;;4985971;28;20492;-68
2023/03/11 03:50:35;;;;;;;4.68;1.55;;;;;;;;;;4966393;28;20026;-68
2023/03/11 03:53:01;;;;;;;5.00;1.80;;;;;;;;;;4984425;28;20031;-67
2023/03/11 03:55:27;;;;;;;6.50;2.10;;;;;;;;;;4995950;28;20480;-68
2023/03/11 03:57:53;;;;;;;5.53;2.17;;;;;;;;;;4994134;28;20403;-68
2023/03/11 04:00:23;;;;;;;14.00;2.95;;;;;;;;;;4977912;28;20022;-68
2023/03/11 04:02:55;;;;;;;6.57;2.20;;;;;;;;;;4977989;28;20026;-68
2023/03/11 04:05:29;;;;;;;;;;;;;;;;;;4963841;28;20041;-68
2023/03/11 04:07:55;;;;;;;9.57;2.50;;;;;;;;;;4994564;28;19913;-68
2023/03/11 04:10:21;;;;;;;6.20;1.70;;;;;;;;;;4977725;28;20038;-68
2023/03/11 04:12:47;;;;;;;10.77;2.40;;;;;;;;;;4994497;28;20176;-68
2023/03/11 04:15:13;;;;;;;6.38;1.88;;;;;;;;;;4978586;28;20030;-68
2023/03/11 04:17:41;;;;;;;5.63;2.13;;;;;;;;;;4970497;28;20041;-68
2023/03/11 04:20:11;;;;;;;8.60;2.80;;;;;;;;;;4978470;28;20026;-68
2023/03/11 04:22:37;;;;;;;13.38;3.10;;;;;;;;;;4995862;28;20078;-68
2023/03/11 04:25:04;;;;;;;17.08;2.72;;;;;;;;;;4978292;28;20034;-68
2023/03/11 04:27:31;;;;;;;9.98;2.65;;;;;;;;;;4978437;28;20121;-68
2023/03/11 04:29:57;;;;;;;7.18;2.00;;;;;;;;;;4978297;28;20423;-68
2023/03/11 04:32:23;;;;;;;7.40;1.73;;;;;;;;;;4994109;28;20090;-67
2023/03/11 04:34:49;;;;;;;9.20;2.25;;;;;;;;;;4978204;28;20030;-67
2023/03/11 04:37:15;;;;;;;11.15;2.42;;;;;;;;;;4994228;28;20122;-67
2023/03/11 04:39:41;;;;;;;25.33;3.28;;;;;;;;;;4978337;28;20053;-68
2023/03/11 04:42:07;;;;;;;12.88;2.90;;;;;;;;;;4978099;28;20086;-68
2023/03/11 04:44:35;;;;;;;6.22;2.72;;;;;;;;;;4962148;28;20026;-68
2023/03/11 04:47:01;;;;;;;29.73;3.28;;;;;;;;;;4989122;28;20034;-68
2023/03/11 04:49:27;;;;;;;9.25;2.35;;;;;;;;;;4993440;28;20481;-68
2023/03/11 04:51:53;;;;;;;10.63;2.30;;;;;;;;;;4977670;28;20041;-68
2023/03/11 04:54:21;;;;;;;11.52;2.47;;;;;;;;;;4978013;28;20053;-67
2023/03/11 04:56:47;;;;;;;17.70;5.30;;;;;;;;;;4993654;28;20043;-68
2023/03/11 04:59:13;;;;;;;10.93;2.63;;;;;;;;;;4977535;28;20074;-67
2023/03/11 05:01:41;;;;;;;11.38;2.38;;;;;;;;;;4977651;28;20358;-68
2023/03/11 05:04:07;;;;;;;7.55;2.58;;;;;;;;;;4976435;28;20062;-68
2023/03/11 05:06:33;;;;;;;4.43;2.40;;;;;;;;;;4995043;28;20121;-68
2023/03/11 05:09:01;;;;;;;8.68;2.70;;;;;;;;;;4976024;28;20022;-68
2023/03/11 05:11:28;;;;;;;10.50;2.65;;;;;;;;;;4993438;28;20097;-68
2023/03/11 05:13:54;;;;;;;13.05;2.95;;;;;;;;;;4995330;28;20443;-68
2023/03/11 05:16:21;;;;;;;13.63;3.28;;;;;;;;;;4994078;28;20034;-68
2023/03/11 05:18:46;;;;;;;16.10;2.60;;;;;;;;;;4977527;28;20109;-68
2023/03/11 05:21:14;;;;;;;19.27;4.68;;;;;;;;;;4977209;28;20053;-68
2023/03/11 05:23:40;;;;;;;12.07;3.00;;;;;;;;;;4977472;28;20053;-68
2023/03/11 05:26:06;;;;;;;24.33;4.18;;;;;;;;;;4977355;28;20034;-69
2023/03/11 05:28:33;;;;;;;14.13;2.92;;;;;;;;;;4994533;28;20022;-69
2023/03/11 05:31:00;;;;;;;14.90;3.03;;;;;;;;;;4977277;28;20070;-69
2023/03/11 05:33:33;;;;;;;24.48;3.47;;;;;;;;;;4976797;28;20050;-69
2023/03/11 05:36:05;;;;;;;21.10;4.35;;;;;;;;;;4977637;28;20471;-68
2023/03/11 05:38:30;;;;;;;8.95;3.45;;;;;;;;;;4977442;28;20030;-69
2023/03/11 05:40:56;;;;;;;16.00;3.03;;;;;;;;;;4994755;28;20037;-69
2023/03/11 05:43:22;;;;;;;7.97;2.50;;;;;;;;;;4977036;28;20429;-67
2023/03/11 05:45:52;;;;;;;5.70;2.25;;;;;;;;;;4973068;28;20121;-68
2023/03/11 05:48:18;;;;;;;4.57;2.03;;;;;;;;;;4976695;28;20117;-68
2023/03/11 05:50:44;;;;;;;6.22;1.80;;;;;;;;;;4976872;28;20030;-67
2023/03/11 05:53:10;;;;;;;11.18;2.53;;;;;;;;;;4977055;28;20085;-70
2023/03/11 05:55:36;;;;;;;7.47;2.75;;;;;;;;;;4975872;28;20034;-68
2023/03/11 05:58:02;;;;;;;4.60;2.67;;;;;;;;;;4960574;28;20117;-68
2023/03/11 06:00:28;;;;;;;3.83;2.05;;;;;;;;;;4992760;28;20109;-69
2023/03/11 06:02:56;;;;;;;8.27;2.10;;;;;;;;;;4992798;28;20031;-68
2023/03/11 06:05:22;;;;;;;5.18;1.58;;;;;;;;;;4976791;28;20050;-69
2023/03/11 06:07:50;;;;;;;5.15;1.77;;;;;;;;;;4976082;28;20118;-70
2023/03/11 06:10:16;;;;;;;4.63;1.80;;;;;;;;;;4976351;28;20042;-68
2023/03/11 06:12:42;;;;;;;5.85;1.80;;;;;;;;;;4994256;28;20026;-68
2023/03/11 06:15:20;;;;;;;3.75;1.83;;;;;;;;;;4975517;28;20026;-68
2023/03/11 06:17:46;;;;;;;2.17;1.25;;;;;;;;;;4993638;28;20042;-69
2023/03/11 06:20:12;;;;;;;7.18;1.98;;;;;;;;;;4976542;28;20052;-69
2023/03/11 06:22:38;;;;;;;7.05;1.92;;;;;;;;;;4992311;28;20121;-69
2023/03/11 06:25:04;;;;;;;4.97;1.63;;;;;;;;;;4976553;28;20113;-68
2023/03/11 06:27:31;;;;;;;2.67;1.50;;;;;;;;;;4991172;28;20026;-68
2023/03/11 06:29:58;;;;;;;1.88;0.90;;;;;;;;;;4981071;28;20030;-69
2023/03/11 06:32:24;;;;;;;0.95;0.73;;;;;;;;;;4975344;28;20026;-69
2023/03/11 06:34:53;;;;;;;6.80;1.73;;;;;;;;;;4975388;28;20024;-69
2023/03/11 06:37:22;;;;;;;5.70;1.30;;;;;;;;;;4976195;28;20030;-71
2023/03/11 06:39:51;;;;;;;7.97;1.70;;;;;;;;;;4993298;28;20366;-72
2023/03/11 06:42:22;;;;;;;5.43;1.23;;;;;;;;;;4975522;28;20026;-73
2023/03/11 06:44:49;;;;;;;4.45;1.15;;;;;;;;;;4976782;28;20030;-72
2023/03/11 06:47:15;;;;;;;2.80;1.08;;;;;;;;;;4975072;28;20018;-72
2023/03/11 06:49:41;;;;;;;2.10;1.15;;;;;;;;;;4983531;28;20022;-73
2023/03/11 06:52:08;;;;;;;10.60;2.08;;;;;;;;;;4954943;28;20026;-73
2023/03/11 06:54:34;;;;;;;1.98;1.17;;;;;;;;;;4974349;28;20062;-72
2023/03/11 06:57:01;;;;;;;2.72;0.77;;;;;;;;;;4959014;28;20105;-71
2023/03/11 06:59:27;;;;;;;1.58;0.82;;;;;;;;;;4992244;28;20377;-72
2023/03/11 07:01:54;;;;;;;2.95;0.80;;;;;;;;;;4974171;28;20544;-72
2023/03/11 07:04:20;;;;;;;5.15;3.13;;;;;;;;;;5004770;28;20026;-73
2023/03/11 07:06:47;;;;;;;1.85;0.85;;;;;;;;;;4974871;28;20030;-72
2023/03/11 07:09:21;;;;;;;3.17;0.93;;;;;;;;;;4990403;28;20085;-73
2023/03/11 07:11:47;;;;;;;5.85;1.08;;;;;;;;;;4989492;28;20391;-71
2023/03/11 07:14:18;;;;;;;2.75;0.90;;;;;;;;;;4973840;28;20030;-72
2023/03/11 07:16:48;;;;;;;6.03;1.00;;;;;;;;;;4974661;28;20105;-71
2023/03/11 07:19:22;;;;;;;10.60;2.25;;;;;;;;;;4959862;28;20117;-72
2023/03/11 07:21:48;;;;;;;6.63;1.40;;;;;;;;;;4991863;28;20110;-72
2023/03/11 07:24:14;;;;;;;1.25;0.80;;;;;;;;;;4976976;28;20480;-72
2023/03/11 07:26:40;;;;;;;9.98;2.08;;;;;;;;;;4991357;28;20041;-72
2023/03/11 07:29:06;;;;;;;4.72;1.10;;;;;;;;;;4991750;28;20062;-72
2023/03/11 07:31:34;;;;;;;5.25;1.45;;;;;;;;;;4972240;28;20388;-73
2023/03/11 07:34:02;;;;;;;4.28;1.52;;;;;;;;;;4992176;28;20029;-71
2023/03/11 07:36:29;;;;;;;4.95;1.27;;;;;;;;;;4972664;28;20027;-72
2023/03/11 07:39:01;;;;;;;2.83;1.60;;;;;;;;;;4990432;28;20396;-71
2023/03/11 07:41:29;;;;;;;6.38;1.20;;;;;;;;;;4990576;28;20445;-70
2023/03/11 07:43:56;;;;;;;4.00;1.20;;;;;;;;;;4990424;28;20482;-71
2023/03/11 07:46:23;;;;;;;2.05;0.90;;;;;;;;;;4973128;28;20069;-73
2023/03/11 07:48:50;;;;;;;3.58;1.00;;;;;;;;;;4990621;28;20433;-70
2023/03/11 07:51:20;;;;;;;3.35;1.10;;;;;;;;;;4988157;28;20034;-70
2023/03/11 07:53:47;;;;;;;3.70;1.20;;;;;;;;;;4990817;28;20034;-71
2023/03/11 07:56:14;;;;;;;7.68;1.40;;;;;;;;;;4990333;28;20549;-71
2023/03/11 07:58:41;;;;;;;2.58;1.10;;;;;;;;;;4988484;28;20046;-71
2023/03/11 08:01:12;;;;;;;1.30;0.70;;;;;;;;;;4973248;28;20022;-72
2023/03/11 08:03:38;;;;;;;3.22;1.30;;;;;;;;;;4973365;28;20400;-70
2023/03/11 08:06:18;;;;;;;1.13;0.82;;;;;;;;;;4983613;28;20026;-70
2023/03/11 08:08:44;;;;;;;2.33;0.82;;;;;;;;;;4989795;28;20065;-72
2023/03/11 08:11:12;;;;;;;3.10;1.50;;;;;;;;;;4974589;28;20014;-72
2023/03/11 08:13:40;;;;;;;1.50;0.90;;;;;;;;;;4973866;28;20089;-71
2023/03/11 08:16:13;;;;;;;3.88;1.13;;;;;;;;;;4990765;28;20125;-70
2023/03/11 08:18:40;;;;;;;2.72;0.90;;;;;;;;;;4973777;28;20034;-72
2023/03/11 08:21:12;;;;;;;7.57;1.27;;;;;;;;;;4990988;28;20149;-72
2023/03/11 08:23:38;;;;;;;1.98;1.00;;;;;;;;;;4994361;28;20042;-70
2023/03/11 08:26:08;;;;;;;3.08;1.20;;;;;;;;;;4993266;28;20026;-71
2023/03/11 08:28:35;;;;;;;3.55;1.15;;;;;;;;;;4991514;28;20101;-71
2023/03/11 08:31:01;;;;;;;3.15;1.25;;;;;;;;;;4976098;28;20019;-71
2023/03/11 08:33:27;;;;;;;5.35;1.27;;;;;;;;;;4995642;28;20042;-71
2023/03/11 08:35:53;;;;;;;4.80;1.08;;;;;;;;;;4992737;28;20031;-71
2023/03/11 08:38:19;;;;;;;2.47;1.08;;;;;;;;;;4992561;28;20030;-72
2023/03/11 08:40:44;;;;;;;5.50;1.48;;;;;;;;;;4995619;28;20110;-71
2023/03/11 08:43:12;;;;;;;3.47;1.35;;;;;;;;;;4978016;28;20026;-72
2023/03/11 08:45:41;;;;;;;4.80;1.15;;;;;;;;;;4994601;28;20038;-71
2023/03/11 08:48:09;;;;;;;3.00;1.20;;;;;;;;;;4994674;28;20065;-71
2023/03/11 08:50:35;;;;;;;4.38;0.98;;;;;;;;;;4994416;28;20030;-72
2023/03/11 08:53:02;;;;;;;3.15;1.00;;;;;;;;;;4994595;28;20109;-72
2023/03/11 08:55:28;;;;;;;3.88;1.08;;;;;;;;;;4994600;28;20022;-71
2023/03/11 08:57:55;;;;;;;2.13;0.70;;;;;;;;;;4975966;28;20121;-71
2023/03/11 09:00:24;;;;;;;6.78;1.40;;;;;;;;;;4994071;28;20113;-71
2023/03/11 09:02:49;;;;;;;3.30;1.50;;;;;;;;;;4987458;28;20101;-71
2023/03/11 09:05:16;;;;;;;3.63;0.98;;;;;;;;;;4994250;28;20101;-71
2023/03/11 09:07:42;;;;;;;2.97;1.00;;;;;;;;;;4991823;28;20121;-70
2023/03/11 09:10:08;;;;;;;5.35;1.90;;;;;;;;;;4993951;28;20022;-70
2023/03/11 09:12:34;;;;;;;4.65;1.30;;;;;;;;;;4976732;28;20030;-69
2023/03/11 09:15:00;;;;;;;3.90;1.40;;;;;;;;;;4993145;28;20475;-69
2023/03/11 09:17:25;;;;;;;4.72;1.88;;;;;;;;;;4993044;28;20038;-71
2023/03/11 09:19:51;;;;;;;5.85;2.00;;;;;;;;;;4993960;28;20026;-71
2023/03/11 09:22:17;;;;;;;5.15;2.10;;;;;;;;;;4993270;28;20031;-71
2023/03/11 09:24:43;;;;;;;4.78;1.40;;;;;;;;;;4993783;28;20105;-71
2023/03/11 09:27:09;;;;;;;5.70;1.30;;;;;;;;;;4992367;28;20034;-70
2023/03/11 09:29:35;;;;;;;9.82;1.27;;;;;;;;;;4993424;28;20026;-70
2023/03/11 09:32:01;;;;;;;7.70;1.70;;;;;;;;;;4994175;28;20054;-71
2023/03/11 09:34:26;;;;;;;8.88;1.90;;;;;;;;;;4993649;28;20445;-73
2023/03/11 09:36:52;;;;;;;11.07;1.70;;;;;;;;;;4991853;28;20061;-71
2023/03/11 09:39:18;;;;;;;4.00;1.50;;;;;;;;;;4993224;28;20026;-71
2023/03/11 09:41:56;;;;;;;7.18;1.58;;;;;;;;;;4993211;28;21317;-71
2023/03/11 09:44:28;;;;;;;4.63;1.30;;;;;;;;;;4991586;28;20077;-71
2023/03/11 09:47:31;;;;;;;6.53;1.90;;;;;;;;;;4993258;28;20054;-70
2023/03/11 09:50:41;;;;;;;6.28;1.92;;;;;;;;;;4991684;28;20117;-70
2023/03/11 09:53:36;;;;;;;7.15;1.50;;;;;;;;;;4913174;29;20044;-70
2023/03/11 09:56:09;;;;;;;8.43;2.42;;;;;;;;;;4984194;28;20132;-71
2023/03/11 09:58:34;;;;;;;3.90;1.65;;;;;;;;;;4992240;28;20034;-69
2023/03/11 10:01:01;;;;;;;5.90;1.92;;;;;;;;;;4993428;28;20058;-69
2023/03/11 10:03:33;;;;;;;5.35;1.77;;;;;;;;;;4992124;28;20034;-70
2023/03/11 10:06:12;;;;;;;3.97;1.77;;;;;;;;;;4990816;28;20038;-70
2023/03/11 10:08:53;;;;;;;4.15;1.80;;;;;;;;;;4991853;28;20287;-70
2023/03/11 10:11:50;;;;;;;12.75;2.53;;;;;;;;;;4987055;28;20065;-71
2023/03/11 10:14:39;;;;;;;8.10;2.00;;;;;;;;;;4971236;28;20038;-71
2023/03/11 10:17:42;;;;;;;5.65;1.60;;;;;;;;;;4990899;28;20084;-70
2023/03/11 10:20:17;;;;;;;3.78;2.45;;;;;;;;;;4986273;28;20026;-70
2023/03/11 10:23:32;;;;;;;4.57;1.63;;;;;;;;;;4958996;28;20495;-69
2023/03/11 10:26:07;;;;;;;6.57;1.63;;;;;;;;;;4988912;28;20042;-69
2023/03/11 10:28:45;;;;;;;3.50;1.60;;;;;;;;;;4991516;28;20050;-69
2023/03/11 10:31:42;;;;;;;5.45;2.30;;;;;;;;;;4992092;28;20038;-71
2023/03/11 10:34:22;;;;;;;7.70;1.70;;;;;;;;;;4991247;28;20104;-70
2023/03/11 10:37:39;;;;;;;4.82;1.80;;;;;;;;;;4975339;28;20393;-69
2023/03/11 10:40:33;;;;;;;6.60;2.00;;;;;;;;;;4948571;28;20049;-70
2023/03/11 10:43:27;;;;;;;4.32;1.90;;;;;;;;;;5006393;28;20035;-70
2023/03/11 10:45:54;;;;;;;4.70;1.35;;;;;;;;;;4985254;28;20034;-70
2023/03/11 10:48:20;;;;;;;11.88;2.13;;;;;;;;;;4990601;28;20053;-70
2023/03/11 10:50:53;;;;;;;12.15;1.92;;;;;;;;;;4990899;28;20042;-69
2023/03/11 10:53:20;;;;;;;4.90;1.83;;;;;;;;;;4992415;28;20122;-70
2023/03/11 10:55:51;;;;;;;7.05;2.55;;;;;;;;;;4991822;28;20168;-68
2023/03/11 10:58:23;;;;;;;7.20;2.47;;;;;;;;;;4975166;28;20045;-70
2023/03/11 11:01:00;;;;;;;13.27;2.27;;;;;;;;;;4991834;28;20042;-70
2023/03/11 11:03:26;;;;;;;8.68;2.17;;;;;;;;;;4986290;28;20280;-69
2023/03/11 11:06:04;;;;;;;4.55;1.70;;;;;;;;;;4990641;28;20022;-70
2023/03/11 11:08:31;;;;;;;5.07;2.08;;;;;;;;;;4989923;28;20030;-70
2023/03/11 11:11:02;;;;;;;6.28;2.20;;;;;;;;;;4991689;28;20030;-69
2023/03/11 11:13:36;;;;;;;5.78;2.00;;;;;;;;;;4990912;28;20161;-71
2023/03/11 11:16:01;;;;;;;8.13;1.90;;;;;;;;;;4992087;28;20042;-69
2023/03/11 11:18:55;;;;;;;5.90;2.05;;;;;;;;;;4970590;28;20030;-68
2023/03/11 11:21:31;;;;;;;7.05;2.40;;;;;;;;;;4987101;28;20034;-69
2023/03/11 11:24:22;;;;;;;7.93;2.30;;;;;;;;;;4992324;28;20112;-69
2023/03/11 11:27:10;;;;;;;6.18;1.92;;;;;;;;;;4992036;28;20034;-69
2023/03/11 11:29:36;;;;;;;10.68;2.28;;;;;;;;;;4992005;28;20085;-69
2023/03/11 11:32:14;;;;;;;6.47;2.40;;;;;;;;;;4993039;28;20117;-70
2023/03/11 11:34:40;;;;;;;4.75;1.80;;;;;;;;;;4991908;28;20038;-69
2023/03/11 11:37:11;;;;;;;8.50;2.00;;;;;;;;;;4991877;28;20026;-69
2023/03/11 11:39:50;;;;;;;7.72;1.83;;;;;;;;;;4992173;28;20058;-69
2023/03/11 11:42:21;;;;;;;4.32;1.92;;;;;;;;;;4992086;28;20055;-70
2023/03/11 11:44:51;;;;;;;5.93;1.90;;;;;;;;;;4991809;28;20053;-71
2023/03/11 11:47:33;;;;;;;6.88;1.90;;;;;;;;;;4990927;28;20061;-69
2023/03/11 11:50:10;;;;;;;5.97;1.95;;;;;;;;;;4990130;28;20408;-68
2023/03/11 11:52:43;;;;;;;5.78;2.17;;;;;;;;;;4990265;28;20068;-69
2023/03/11 11:55:25;;;;;;;5.23;2.00;;;;;;;;;;4991419;28;20034;-69
2023/03/11 11:57:51;;;;;;;5.30;2.25;;;;;;;;;;4991352;28;20428;-70
2023/03/11 12:00:33;;;;;;;7.68;1.95;;;;;;;;;;4991277;28;20041;-70
2023/03/11 12:03:36;;;;;;;6.63;1.50;;;;;;;;;;4992442;28;20065;-68
2023/03/11 12:06:12;;;;;;;9.63;2.33;;;;;;;;;;4992159;28;20385;-69
2023/03/11 12:09:00;;;;;;;6.80;1.48;;;;;;;;;;4992466;28;20554;-70
2023/03/11 12:11:55;;;;;;;5.20;2.10;;;;;;;;;;4974560;28;20089;-69
2023/03/11 12:14:42;;;;;;;5.28;2.10;;;;;;;;;;4994971;28;20484;-69
2023/03/11 12:17:11;;;;;;;7.45;2.80;;;;;;;;;;4995679;28;20030;-70
2023/03/11 12:19:56;;;;;;;5.45;1.98;;;;;;;;;;4995652;28;20026;-69
2023/03/11 12:22:31;;;;;;;9.05;2.33;;;;;;;;;;4995584;28;20120;-70
2023/03/11 12:25:18;;;;;;;7.78;3.00;;;;;;;;;;4995370;28;20064;-69
2023/03/11 12:27:48;;;;;;;6.15;2.20;;;;;;;;;;4995649;28;20041;-69
2023/03/11 12:30:28;;;;;;;7.22;2.60;;;;;;;;;;4993949;28;20120;-69
2023/03/11 12:33:08;;;;;;;8.30;3.00;;;;;;;;;;4995399;28;20037;-69
2023/03/11 12:35:34;;;;;;;6.25;2.25;;;;;;;;;;4992357;28;20045;-69
2023/03/11 12:38:06;;;;;;;6.63;2.28;;;;;;;;;;4995011;28;20073;-68
2023/03/11 12:40:41;;;;;;;5.53;2.22;;;;;;;;;;4995696;28;20439;-69
2023/03/11 12:43:28;;;;;;;9.35;2.67;;;;;;;;;;4995552;28;20053;-68
2023/03/11 12:45:58;;;;;;;7.22;2.72;;;;;;;;;;4994715;28;20207;-68
2023/03/11 12:48:26;;;;;;;6.70;2.40;;;;;;;;;;4995686;28;20424;-67
2023/03/11 12:50:53;;;;;;;9.27;2.30;;;;;;;;;;4994250;28;20128;-69
2023/03/11 12:53:19;;;;;;;10.18;2.30;;;;;;;;;;4995262;28;20023;-69
2023/03/11 12:56:09;;;;;;;4.95;2.15;;;;;;;;;;4995459;28;20049;-70
2023/03/11 12:59:15;;;;;;;8.02;2.50;;;;;;;;;;4995011;28;20082;-69
2023/03/11 13:01:43;;;;;;;10.52;3.60;;;;;;;;;;4966776;28;20149;-69
2023/03/11 13:04:38;;;;;;;6.43;2.60;;;;;;;;;;4994947;28;20030;-70
2023/03/11 13:07:47;;;;;;;5.10;1.77;;;;;;;;;;4967229;28;20050;-70
2023/03/11 13:10:19;;;;;;;12.50;2.55;;;;;;;;;;4995102;28;20034;-69
2023/03/11 13:12:51;;;;;;;8.15;2.38;;;;;;;;;;4995227;28;20042;-70
2023/03/11 13:15:19;;;;;;;8.65;2.72;;;;;;;;;;4994615;28;20180;-71
2023/03/11 13:18:24;;;;;;;5.93;2.17;;;;;;;;;;4994737;28;20077;-70
2023/03/11 13:20:57;;;;;;;6.32;2.67;;;;;;;;;;4983030;28;20108;-68
2023/03/11 13:23:27;;;;;;;9.88;2.60;;;;;;;;;;4994623;28;20038;-69
2023/03/11 13:25:53;;;;;;;9.25;2.80;;;;;;;;;;4993617;28;20049;-71
2023/03/11 13:28:35;;;;;;;9.02;3.00;;;;;;;;;;4994975;28;20370;-69
2023/03/11 13:31:18;;;;;;;9.82;3.03;;;;;;;;;;4994983;28;20518;-69
2023/03/11 13:34:09;;;;;;;9.63;2.90;;;;;;;;;;4995059;28;20481;-69
2023/03/11 13:36:42;;;;;;;8.10;3.72;;;;;;;;;;4995344;28;20030;-71
2023/03/11 13:39:17;;;;;;;7.75;3.65;;;;;;;;;;4994546;28;20026;-71
2023/03/11 13:41:44;;;;;;;9.00;3.10;;;;;;;;;;4994783;28;20046;-70
2023/03/11 13:44:18;;;;;;;9.23;3.35;;;;;;;;;;4994324;28;20018;-71
2023/03/11 13:46:51;;;;;;;7.25;2.20;;;;;;;;;;4994304;28;20049;-72
2023/03/11 13:49:57;;;;;;;11.38;2.40;;;;;;;;;;4994428;28;20034;-70
2023/03/11 13:52:46;;;;;;;7.15;2.38;;;;;;;;;;4914233;29;20071;-70
2023/03/11 13:55:42;;;;;;;5.65;2.40;;;;;;;;;;4979573;28;20381;-71
2023/03/11 13:58:21;;;;;;;7.82;2.55;;;;;;;;;;4986247;28;20038;-72
2023/03/11 14:00:50;;;;;;;6.15;2.08;;;;;;;;;;4993426;28;20477;-71
2023/03/11 14:03:20;;;;;;;5.20;2.10;;;;;;;;;;4984084;28;20473;-69
2023/03/11 14:05:49;;;;;;;7.40;3.10;;;;;;;;;;4993654;28;20034;-71
2023/03/11 14:08:29;;;;;;;7.18;2.55;;;;;;;;;;4993691;28;20558;-70
2023/03/11 14:10:58;;;;;;;9.13;3.50;;;;;;;;;;4994117;28;20046;-70
2023/03/11 14:13:26;;;;;;;13.00;3.70;;;;;;;;;;4993322;28;20058;-69
2023/03/11 14:15:59;;;;;;;6.35;2.75;;;;;;;;;;4993978;28;20401;-70
2023/03/11 14:18:27;;;;;;;9.38;3.17;;;;;;;;;;4993670;28;20136;-70
2023/03/11 14:20:53;;;;;;;7.63;3.42;;;;;;;;;;4994050;28;20089;-70
2023/03/11 14:23:19;;;;;;;8.90;2.40;;;;;;;;;;4976866;28;20436;-69
2023/03/11 14:25:45;;;;;;;8.55;3.00;;;;;;;;;;4993623;28;20022;-69
2023/03/11 14:28:19;;;;;;;10.52;3.08;;;;;;;;;;4993626;28;20049;-69
2023/03/11 14:30:57;;;;;;;8.05;3.17;;;;;;;;;;4993343;28;20042;-69
2023/03/11 14:33:23;;;;;;;9.63;3.38;;;;;;;;;;4993253;28;20283;-68
2023/03/11 14:35:58;;;;;;;6.05;2.72;;;;;;;;;;4993234;28;20033;-69
2023/03/11 14:38:30;;;;;;;14.35;3.55;;;;;;;;;;4993065;28;20034;-69
2023/03/11 14:40:59;;;;;;;10.50;4.28;;;;;;;;;;4993281;28;20149;-71
2023/03/11 14:43:29;;;;;;;10.35;3.47;;;;;;;;;;4993401;28;20029;-70
2023/03/11 14:45:55;;;;;;;11.30;4.45;;;;;;;;;;4993266;28;20038;-70
2023/03/11 14:48:35;;;;;;;13.40;3.47;;;;;;;;;;4992905;28;20607;-70
2023/03/11 14:51:04;;;;;;;8.85;2.85;;;;;;;;;;4975645;28;20041;-71
2023/03/11 14:53:42;;;;;;;8.88;3.17;;;;;;;;;;4992898;28;20507;-70
2023/03/11 14:56:13;;;;;;;6.53;2.70;;;;;;;;;;4993218;28;20030;-71
2023/03/11 14:58:43;;;;;;;7.10;2.47;;;;;;;;;;4991775;28;20463;-70
2023/03/11 15:01:16;;;;;;;5.80;2.55;;;;;;;;;;4992904;28;20060;-72
2023/03/11 15:04:06;;;;;;;6.53;2.30;;;;;;;;;;4987795;28;20464;-70